Pagrindinis puslapis
METAR-TAF:

METAR-TAF

Oro uostai :

Choremabadas, Iranas

platuma: 33-26-11N, ilguma: 048-17-09E, Aukštis: 1155 m

Dabartinis oras

Ataskaita buvo paskelbta 35 minutes, ne 10:00 UTC
Vėjas 6 kt iš Rytų/Pietryčių
Temperatūra 9°C
Drėgmė 76%
Slėgis 1022 hPa
Matomumas 10 km arba daugiau
Išsisklaidę debesys ne aukštis 3500 ft, aukštai iškilę kamuoliniai debesys.

METAR: OICK 061000Z 11006KT 9999 SCT035TCU 09/05 Q1022

Laikas: 14:05 (10:35 UTC)


TAF: trūkstamas

Orai ataskaitas ir orų prognozės (METAR, TAF).

turimą stotys yra geltonos ir raudonos taškus žemėlapyje.

Perkelti pele per norėdami pamatyti stoties vardą.

Tada spustelėkite, norėdami matyti oro stebėjimo ir prognozės.

Norėdami pakeisti žemėlapį: spustelėkite ant žalios mygtukų su juodo kryžiaus žemyn,; žalią mygtuką su brūkšneliu, jei norite nutolinti; arba žalių rodyklių gretimoms žemėlapius.


METAR-TAF: